sensor_id;sensor_type;location;lat;lon;timestamp;P1;P2;P0
50866;PMS7003;36839;51.946;21.002;2024-01-15T00:02:32;26.00;20.00;15.00
50866;PMS7003;36839;51.946;21.002;2024-01-15T00:05:07;18.00;14.00;11.00
50866;PMS7003;36839;51.946;21.002;2024-01-15T00:07:51;20.50;17.00;11.50
50866;PMS7003;36839;51.946;21.002;2024-01-15T00:10:23;15.00;11.50;6.00
50866;PMS7003;36839;51.946;21.002;2024-01-15T00:12:57;20.00;18.00;12.00
50866;PMS7003;36839;51.946;21.002;2024-01-15T00:15:34;20.00;20.00;14.50
50866;PMS7003;36839;51.946;21.002;2024-01-15T00:18:09;18.00;17.00;12.00
50866;PMS7003;36839;51.946;21.002;2024-01-15T00:23:39;26.00;22.00;14.00
50866;PMS7003;36839;51.946;21.002;2024-01-15T00:26:18;22.00;19.00;15.00
50866;PMS7003;36839;51.946;21.002;2024-01-15T00:29:02;30.50;22.00;16.50
50866;PMS7003;36839;51.946;21.002;2024-01-15T00:31:45;24.00;19.50;12.00
50866;PMS7003;36839;51.946;21.002;2024-01-15T00:34:47;28.00;22.00;16.00
50866;PMS7003;36839;51.946;21.002;2024-01-15T00:37:35;27.50;24.00;15.00
50866;PMS7003;36839;51.946;21.002;2024-01-15T00:43:17;22.00;19.00;14.00
50866;PMS7003;36839;51.946;21.002;2024-01-15T00:46:09;26.00;22.50;16.00
50866;PMS7003;36839;51.946;21.002;2024-01-15T00:49:12;25.00;20.00;12.00
50866;PMS7003;36839;51.946;21.002;2024-01-15T00:52:16;27.50;25.50;15.50
50866;PMS7003;36839;51.946;21.002;2024-01-15T00:55:43;31.00;24.00;16.00
50866;PMS7003;36839;51.946;21.002;2024-01-15T00:58:50;30.00;25.00;17.00
50866;PMS7003;36839;51.946;21.002;2024-01-15T01:01:36;26.00;22.00;14.00
50866;PMS7003;36839;51.946;21.002;2024-01-15T01:04:17;23.00;21.00;16.00
50866;PMS7003;36839;51.946;21.002;2024-01-15T01:06:57;34.00;25.00;19.00
50866;PMS7003;36839;51.946;21.002;2024-01-15T01:09:48;29.00;27.00;19.50
50866;PMS7003;36839;51.946;21.002;2024-01-15T01:12:48;32.50;26.50;16.00
50866;PMS7003;36839;51.946;21.002;2024-01-15T01:15:40;28.00;22.00;13.00
50866;PMS7003;36839;51.946;21.002;2024-01-15T01:19:08;29.00;22.00;16.00
50866;PMS7003;36839;51.946;21.002;2024-01-15T01:25:02;26.50;22.50;15.00
50866;PMS7003;36839;51.946;21.002;2024-01-15T01:27:53;27.50;22.00;16.00
50866;PMS7003;36839;51.946;21.002;2024-01-15T01:30:54;13.00;11.50;7.00
50866;PMS7003;36839;51.946;21.002;2024-01-15T01:36:26;30.50;22.50;16.00
50866;PMS7003;36839;51.946;21.002;2024-01-15T01:39:28;22.00;21.00;15.00
50866;PMS7003;36839;51.946;21.002;2024-01-15T01:42:38;24.00;21.00;14.00
50866;PMS7003;36839;51.946;21.002;2024-01-15T01:45:35;31.00;24.50;15.50
50866;PMS7003;36839;51.946;21.002;2024-01-15T01:48:43;28.00;26.00;16.00
50866;PMS7003;36839;51.946;21.002;2024-01-15T01:51:16;25.00;20.00;15.00
50866;PMS7003;36839;51.946;21.002;2024-01-15T01:54:01;26.00;23.00;17.00
50866;PMS7003;36839;51.946;21.002;2024-01-15T01:56:40;27.00;22.00;15.00
50866;PMS7003;36839;51.946;21.002;2024-01-15T01:59:17;24.50;21.00;13.00
50866;PMS7003;36839;51.946;21.002;2024-01-15T02:01:51;31.00;25.00;16.00
50866;PMS7003;36839;51.946;21.002;2024-01-15T02:04:28;28.50;25.50;16.00
50866;PMS7003;36839;51.946;21.002;2024-01-15T02:07:11;31.00;25.00;15.00
50866;PMS7003;36839;51.946;21.002;2024-01-15T02:09:49;24.00;21.00;14.00
50866;PMS7003;36839;51.946;21.002;2024-01-15T02:12:20;22.00;21.00;15.00
50866;PMS7003;36839;51.946;21.002;2024-01-15T02:14:54;25.67;23.67;17.67
50866;PMS7003;36839;51.946;21.002;2024-01-15T02:17:41;25.00;22.00;15.00
50866;PMS7003;36839;51.946;21.002;2024-01-15T02:20:35;29.50;25.00;16.50
50866;PMS7003;36839;51.946;21.002;2024-01-15T02:23:10;26.00;22.50;16.00
50866;PMS7003;36839;51.946;21.002;2024-01-15T02:25:50;23.00;20.50;14.00
50866;PMS7003;36839;51.946;21.002;2024-01-15T02:31:00;25.00;19.00;12.00
50866;PMS7003;36839;51.946;21.002;2024-01-15T02:33:31;25.00;22.00;13.00
50866;PMS7003;36839;51.946;21.002;2024-01-15T02:36:14;20.00;18.00;15.00
50866;PMS7003;36839;51.946;21.002;2024-01-15T02:38:43;31.00;28.00;15.00
50866;PMS7003;36839;51.946;21.002;2024-01-15T02:41:11;28.00;22.00;15.00
50866;PMS7003;36839;51.946;21.002;2024-01-15T02:43:50;23.00;23.00;16.50
50866;PMS7003;36839;51.946;21.002;2024-01-15T02:46:25;24.00;23.50;15.50
50866;PMS7003;36839;51.946;21.002;2024-01-15T02:48:57;32.00;23.00;17.00
50866;PMS7003;36839;51.946;21.002;2024-01-15T02:51:37;29.00;22.00;15.00
50866;PMS7003;36839;51.946;21.002;2024-01-15T02:54:20;24.00;21.00;14.00
50866;PMS7003;36839;51.946;21.002;2024-01-15T02:57:01;25.00;18.50;11.50
50866;PMS7003;36839;51.946;21.002;2024-01-15T02:59:36;29.00;22.00;15.00
50866;PMS7003;36839;51.946;21.002;2024-01-15T03:02:21;25.50;23.00;15.00
50866;PMS7003;36839;51.946;21.002;2024-01-15T03:04:49;29.50;20.00;12.50
50866;PMS7003;36839;51.946;21.002;2024-01-15T03:07:54;26.00;21.50;15.00
50866;PMS7003;36839;51.946;21.002;2024-01-15T03:10:28;30.00;24.00;15.00
50866;PMS7003;36839;51.946;21.002;2024-01-15T03:13:05;31.50;24.50;16.50
50866;PMS7003;36839;51.946;21.002;2024-01-15T03:16:23;21.00;20.00;15.00
50866;PMS7003;36839;51.946;21.002;2024-01-15T03:19:01;27.00;21.00;15.00
50866;PMS7003;36839;51.946;21.002;2024-01-15T03:21:43;31.50;24.00;16.00
50866;PMS7003;36839;51.946;21.002;2024-01-15T03:24:29;25.67;24.00;15.00
50866;PMS7003;36839;51.946;21.002;2024-01-15T03:27:12;23.00;23.00;13.50
50866;PMS7003;36839;51.946;21.002;2024-01-15T03:29:55;20.00;17.00;12.00
50866;PMS7003;36839;51.946;21.002;2024-01-15T03:32:48;27.00;22.00;13.00
50866;PMS7003;36839;51.946;21.002;2024-01-15T03:35:35;31.50;23.50;16.00
50866;PMS7003;36839;51.946;21.002;2024-01-15T03:38:08;29.00;21.50;16.00
50866;PMS7003;36839;51.946;21.002;2024-01-15T03:40:54;26.00;23.00;15.00
50866;PMS7003;36839;51.946;21.002;2024-01-15T03:46:17;24.00;21.00;15.00
50866;PMS7003;36839;51.946;21.002;2024-01-15T03:48:56;20.50;16.00;8.00
50866;PMS7003;36839;51.946;21.002;2024-01-15T03:51:29;24.50;20.00;15.00
50866;PMS7003;36839;51.946;21.002;2024-01-15T03:57:25;23.50;20.00;11.00
50866;PMS7003;36839;51.946;21.002;2024-01-15T04:00:06;22.00;21.00;15.00
50866;PMS7003;36839;51.946;21.002;2024-01-15T04:02:48;25.00;21.00;15.00
50866;PMS7003;36839;51.946;21.002;2024-01-15T04:05:18;20.67;18.33;13.00
50866;PMS7003;36839;51.946;21.002;2024-01-15T04:10:41;32.00;27.00;16.50
50866;PMS7003;36839;51.946;21.002;2024-01-15T04:13:35;39.00;21.00;14.00
50866;PMS7003;36839;51.946;21.002;2024-01-15T04:16:07;24.50;21.00;17.00
50866;PMS7003;36839;51.946;21.002;2024-01-15T04:19:02;27.00;21.00;15.00
50866;PMS7003;36839;51.946;21.002;2024-01-15T04:21:58;24.00;19.00;15.00
50866;PMS7003;36839;51.946;21.002;2024-01-15T04:25:01;32.00;24.50;16.00
50866;PMS7003;36839;51.946;21.002;2024-01-15T04:31:23;27.00;20.00;15.00
50866;PMS7003;36839;51.946;21.002;2024-01-15T04:34:41;29.00;22.00;15.00
50866;PMS7003;36839;51.946;21.002;2024-01-15T04:37:43;24.00;15.00;12.00
50866;PMS7003;36839;51.946;21.002;2024-01-15T04:43:53;31.00;25.00;17.00
50866;PMS7003;36839;51.946;21.002;2024-01-15T04:47:06;26.50;26.00;17.00
50866;PMS7003;36839;51.946;21.002;2024-01-15T04:50:08;29.00;24.00;17.00
50866;PMS7003;36839;51.946;21.002;2024-01-15T04:53:15;22.50;20.00;15.00
50866;PMS7003;36839;51.946;21.002;2024-01-15T04:55:55;22.00;21.00;15.00
50866;PMS7003;36839;51.946;21.002;2024-01-15T04:58:37;27.00;24.00;17.00
50866;PMS7003;36839;51.946;21.002;2024-01-15T05:01:16;25.00;21.00;15.00
50866;PMS7003;36839;51.946;21.002;2024-01-15T05:04:15;24.50;21.00;15.50
50866;PMS7003;36839;51.946;21.002;2024-01-15T05:07:23;22.00;22.00;14.00
50866;PMS7003;36839;51.946;21.002;2024-01-15T05:10:32;22.00;20.50;15.00
50866;PMS7003;36839;51.946;21.002;2024-01-15T05:13:11;28.50;24.00;15.50
50866;PMS7003;36839;51.946;21.002;2024-01-15T05:16:26;28.00;21.00;14.00
50866;PMS7003;36839;51.946;21.002;2024-01-15T05:19:16;23.50;17.50;14.50
50866;PMS7003;36839;51.946;21.002;2024-01-15T05:21:50;27.00;20.00;13.00
50866;PMS7003;36839;51.946;21.002;2024-01-15T05:24:30;23.00;17.33;12.33
50866;PMS7003;36839;51.946;21.002;2024-01-15T05:27:23;24.00;20.50;14.00
50866;PMS7003;36839;51.946;21.002;2024-01-15T05:30:24;29.00;23.00;15.00
50866;PMS7003;36839;51.946;21.002;2024-01-15T05:33:14;25.00;23.00;16.00
50866;PMS7003;36839;51.946;21.002;2024-01-15T05:36:03;24.00;20.00;14.00
50866;PMS7003;36839;51.946;21.002;2024-01-15T05:38:36;25.00;21.00;13.00
50866;PMS7003;36839;51.946;21.002;2024-01-15T05:41:09;9.00;6.50;6.00
50866;PMS7003;36839;51.946;21.002;2024-01-15T05:43:51;21.00;19.00;13.00
50866;PMS7003;36839;51.946;21.002;2024-01-15T05:46:34;27.50;18.00;12.00
50866;PMS7003;36839;51.946;21.002;2024-01-15T05:49:18;24.00;17.00;12.00
50866;PMS7003;36839;51.946;21.002;2024-01-15T05:51:57;19.00;19.00;12.00
50866;PMS7003;36839;51.946;21.002;2024-01-15T05:54:41;29.50;22.00;15.00
50866;PMS7003;36839;51.946;21.002;2024-01-15T05:57:19;17.00;17.00;15.00
50866;PMS7003;36839;51.946;21.002;2024-01-15T06:00:24;22.50;17.50;14.00
50866;PMS7003;36839;51.946;21.002;2024-01-15T06:03:24;22.00;17.00;11.00
50866;PMS7003;36839;51.946;21.002;2024-01-15T06:06:36;26.50;20.50;16.00
50866;PMS7003;36839;51.946;21.002;2024-01-15T06:09:31;22.50;20.50;12.50
50866;PMS7003;36839;51.946;21.002;2024-01-15T06:12:28;33.50;30.50;24.00
50866;PMS7003;36839;51.946;21.002;2024-01-15T06:15:08;27.00;23.00;17.00
50866;PMS7003;36839;51.946;21.002;2024-01-15T06:18:18;20.00;17.00;15.00
50866;PMS7003;36839;51.946;21.002;2024-01-15T06:20:54;26.50;21.50;15.00
50866;PMS7003;36839;51.946;21.002;2024-01-15T06:24:04;41.00;35.00;22.00
50866;PMS7003;36839;51.946;21.002;2024-01-15T06:26:56;29.00;24.00;16.00
50866;PMS7003;36839;51.946;21.002;2024-01-15T06:30:01;33.00;30.00;22.00
50866;PMS7003;36839;51.946;21.002;2024-01-15T06:32:49;44.00;30.00;20.00
50866;PMS7003;36839;51.946;21.002;2024-01-15T06:35:50;29.50;25.00;17.00
50866;PMS7003;36839;51.946;21.002;2024-01-15T06:38:51;36.00;23.00;16.00
50866;PMS7003;36839;51.946;21.002;2024-01-15T06:42:08;24.00;22.50;15.00
50866;PMS7003;36839;51.946;21.002;2024-01-15T06:44:49;31.00;22.00;15.00
50866;PMS7003;36839;51.946;21.002;2024-01-15T06:47:56;28.50;25.00;19.00
50866;PMS7003;36839;51.946;21.002;2024-01-15T06:50:58;34.00;24.00;16.00
50866;PMS7003;36839;51.946;21.002;2024-01-15T06:56:47;33.00;27.00;18.00
50866;PMS7003;36839;51.946;21.002;2024-01-15T06:59:21;38.00;30.00;18.00
50866;PMS7003;36839;51.946;21.002;2024-01-15T07:01:53;25.50;23.50;17.50
50866;PMS7003;36839;51.946;21.002;2024-01-15T07:04:33;32.00;27.00;17.00
50866;PMS7003;36839;51.946;21.002;2024-01-15T07:07:10;25.00;22.00;16.00
50866;PMS7003;36839;51.946;21.002;2024-01-15T07:09:53;23.00;21.00;15.00
50866;PMS7003;36839;51.946;21.002;2024-01-15T07:15:47;24.50;18.00;13.00
50866;PMS7003;36839;51.946;21.002;2024-01-15T07:18:36;23.00;18.00;13.00
50866;PMS7003;36839;51.946;21.002;2024-01-15T07:21:13;21.00;20.00;15.00
50866;PMS7003;36839;51.946;21.002;2024-01-15T07:23:49;26.50;23.00;15.50
50866;PMS7003;36839;51.946;21.002;2024-01-15T07:26:52;25.67;23.00;16.00
50866;PMS7003;36839;51.946;21.002;2024-01-15T07:33:47;27.00;21.50;15.50
50866;PMS7003;36839;51.946;21.002;2024-01-15T07:36:37;29.00;23.00;15.00
50866;PMS7003;36839;51.946;21.002;2024-01-15T07:39:16;26.00;25.00;17.00
50866;PMS7003;36839;51.946;21.002;2024-01-15T07:41:57;25.00;25.00;15.00
50866;PMS7003;36839;51.946;21.002;2024-01-15T07:44:46;29.00;22.00;16.00
50866;PMS7003;36839;51.946;21.002;2024-01-15T07:47:29;30.00;23.00;16.00
50866;PMS7003;36839;51.946;21.002;2024-01-15T07:50:21;29.00;19.00;15.00
50866;PMS7003;36839;51.946;21.002;2024-01-15T07:52:57;29.67;24.33;16.00
50866;PMS7003;36839;51.946;21.002;2024-01-15T07:55:34;23.00;21.50;14.00
50866;PMS7003;36839;51.946;21.002;2024-01-15T07:58:18;20.50;20.50;11.50
50866;PMS7003;36839;51.946;21.002;2024-01-15T08:01:13;29.50;25.50;18.50
50866;PMS7003;36839;51.946;21.002;2024-01-15T08:04:08;31.00;26.00;15.00
50866;PMS7003;36839;51.946;21.002;2024-01-15T08:06:45;23.00;23.00;15.00
50866;PMS7003;36839;51.946;21.002;2024-01-15T08:09:52;30.00;26.00;16.67
50866;PMS7003;36839;51.946;21.002;2024-01-15T08:12:45;26.00;22.00;14.33
50866;PMS7003;36839;51.946;21.002;2024-01-15T08:15:21;25.50;18.50;14.00
50866;PMS7003;36839;51.946;21.002;2024-01-15T08:18:17;27.50;23.50;16.50
50866;PMS7003;36839;51.946;21.002;2024-01-15T08:21:03;25.00;21.00;15.00
50866;PMS7003;36839;51.946;21.002;2024-01-15T08:23:48;26.00;23.00;16.00
50866;PMS7003;36839;51.946;21.002;2024-01-15T08:26:40;30.00;26.00;18.00
50866;PMS7003;36839;51.946;21.002;2024-01-15T08:29:22;27.00;25.00;16.00
50866;PMS7003;36839;51.946;21.002;2024-01-15T08:32:05;29.00;24.50;16.00
50866;PMS7003;36839;51.946;21.002;2024-01-15T08:35:02;30.00;22.00;15.00
50866;PMS7003;36839;51.946;21.002;2024-01-15T08:37:47;29.00;23.00;17.00
50866;PMS7003;36839;51.946;21.002;2024-01-15T08:40:26;26.00;24.00;15.00
50866;PMS7003;36839;51.946;21.002;2024-01-15T08:43:10;22.00;22.00;16.00
50866;PMS7003;36839;51.946;21.002;2024-01-15T08:45:54;27.00;25.00;16.00
50866;PMS7003;36839;51.946;21.002;2024-01-15T08:48:38;23.00;20.50;17.00
50866;PMS7003;36839;51.946;21.002;2024-01-15T08:51:10;29.00;20.00;15.00
50866;PMS7003;36839;51.946;21.002;2024-01-15T08:53:56;20.00;17.00;13.00
50866;PMS7003;36839;51.946;21.002;2024-01-15T08:56:40;28.00;24.00;16.50
50866;PMS7003;36839;51.946;21.002;2024-01-15T08:59:32;27.50;22.50;13.00
50866;PMS7003;36839;51.946;21.002;2024-01-15T09:02:04;21.50;19.50;13.00
50866;PMS7003;36839;51.946;21.002;2024-01-15T09:04:35;22.50;18.50;15.00
50866;PMS7003;36839;51.946;21.002;2024-01-15T09:07:12;21.50;16.50;12.50
50866;PMS7003;36839;51.946;21.002;2024-01-15T09:09:59;24.00;21.00;14.00
50866;PMS7003;36839;51.946;21.002;2024-01-15T09:12:37;22.00;19.00;11.00
50866;PMS7003;36839;51.946;21.002;2024-01-15T09:15:14;17.75;16.50;9.75
50866;PMS7003;36839;51.946;21.002;2024-01-15T09:18:00;23.50;22.00;13.00
50866;PMS7003;36839;51.946;21.002;2024-01-15T09:20:37;20.00;20.00;13.50
50866;PMS7003;36839;51.946;21.002;2024-01-15T09:23:31;15.67;15.33;12.00
50866;PMS7003;36839;51.946;21.002;2024-01-15T09:26:08;17.00;13.50;9.00
50866;PMS7003;36839;51.946;21.002;2024-01-15T09:28:46;20.33;17.00;12.00
50866;PMS7003;36839;51.946;21.002;2024-01-15T09:31:39;20.50;16.50;12.50
50866;PMS7003;36839;51.946;21.002;2024-01-15T09:34:23;9.00;9.00;6.00
50866;PMS7003;36839;51.946;21.002;2024-01-15T09:36:54;18.00;11.00;9.00
50866;PMS7003;36839;51.946;21.002;2024-01-15T09:39:37;8.00;8.00;6.00
50866;PMS7003;36839;51.946;21.002;2024-01-15T09:42:22;12.00;8.00;4.00
50866;PMS7003;36839;51.946;21.002;2024-01-15T09:45:01;7.50;5.50;3.00
50866;PMS7003;36839;51.946;21.002;2024-01-15T09:47:56;14.50;7.00;5.00
50866;PMS7003;36839;51.946;21.002;2024-01-15T09:50:32;11.00;10.00;6.00
50866;PMS7003;36839;51.946;21.002;2024-01-15T09:53:25;11.00;6.00;6.00
50866;PMS7003;36839;51.946;21.002;2024-01-15T09:55:55;14.50;10.50;6.00
50866;PMS7003;36839;51.946;21.002;2024-01-15T09:58:32;20.00;17.00;11.00
50866;PMS7003;36839;51.946;21.002;2024-01-15T10:01:07;13.00;13.00;7.00
50866;PMS7003;36839;51.946;21.002;2024-01-15T10:03:51;22.67;16.00;11.67
50866;PMS7003;36839;51.946;21.002;2024-01-15T10:06:33;26.00;19.00;12.00
50866;PMS7003;36839;51.946;21.002;2024-01-15T10:09:13;13.67;8.00;5.00
50866;PMS7003;36839;51.946;21.002;2024-01-15T10:11:48;8.00;8.00;6.00
50866;PMS7003;36839;51.946;21.002;2024-01-15T10:14:16;12.00;10.00;7.00
50866;PMS7003;36839;51.946;21.002;2024-01-15T10:16:52;11.00;8.00;7.00
50866;PMS7003;36839;51.946;21.002;2024-01-15T10:19:45;16.50;10.00;8.00
50866;PMS7003;36839;51.946;21.002;2024-01-15T10:22:15;17.00;12.67;8.67
50866;PMS7003;36839;51.946;21.002;2024-01-15T10:24:44;15.00;11.50;7.50
50866;PMS7003;36839;51.946;21.002;2024-01-15T10:27:27;11.50;9.00;6.50
50866;PMS7003;36839;51.946;21.002;2024-01-15T10:30:03;12.00;11.00;7.33
50866;PMS7003;36839;51.946;21.002;2024-01-15T10:32:36;16.00;13.00;10.00
50866;PMS7003;36839;51.946;21.002;2024-01-15T10:35:10;16.50;12.00;7.50
50866;PMS7003;36839;51.946;21.002;2024-01-15T10:37:49;16.50;12.75;10.50
50866;PMS7003;36839;51.946;21.002;2024-01-15T10:43:46;12.00;12.00;8.00
50866;PMS7003;36839;51.946;21.002;2024-01-15T10:46:44;7.00;6.00;1.00
50866;PMS7003;36839;51.946;21.002;2024-01-15T10:49:39;12.00;8.00;5.00
50866;PMS7003;36839;51.946;21.002;2024-01-15T10:52:51;18.00;15.00;12.00
50866;PMS7003;36839;51.946;21.002;2024-01-15T10:55:30;27.00;24.00;16.00
50866;PMS7003;36839;51.946;21.002;2024-01-15T10:58:39;25.50;21.00;16.00
50866;PMS7003;36839;51.946;21.002;2024-01-15T11:02:01;16.00;16.00;11.00
50866;PMS7003;36839;51.946;21.002;2024-01-15T11:04:35;21.00;16.00;11.00
50866;PMS7003;36839;51.946;21.002;2024-01-15T11:07:24;12.33;12.33;9.33
50866;PMS7003;36839;51.946;21.002;2024-01-15T11:09:59;15.00;12.00;8.00
50866;PMS7003;36839;51.946;21.002;2024-01-15T11:12:41;21.00;15.00;12.00
50866;PMS7003;36839;51.946;21.002;2024-01-15T11:15:32;13.00;13.00;11.00
50866;PMS7003;36839;51.946;21.002;2024-01-15T11:22:02;22.00;13.00;10.00
50866;PMS7003;36839;51.946;21.002;2024-01-15T11:24:38;16.00;16.00;11.00
50866;PMS7003;36839;51.946;21.002;2024-01-15T11:27:07;12.00;12.00;9.00
50866;PMS7003;36839;51.946;21.002;2024-01-15T11:29:48;17.50;12.00;7.50
50866;PMS7003;36839;51.946;21.002;2024-01-15T11:32:40;23.00;15.00;12.00
50866;PMS7003;36839;51.946;21.002;2024-01-15T11:35:22;16.00;13.00;10.00
50866;PMS7003;36839;51.946;21.002;2024-01-15T11:38:31;14.00;11.50;8.00
50866;PMS7003;36839;51.946;21.002;2024-01-15T11:41:14;18.00;17.00;11.00
50866;PMS7003;36839;51.946;21.002;2024-01-15T11:44:02;15.00;11.50;8.50
50866;PMS7003;36839;51.946;21.002;2024-01-15T11:46:47;12.50;10.00;8.00
50866;PMS7003;36839;51.946;21.002;2024-01-15T11:52:49;14.50;14.50;10.00
50866;PMS7003;36839;51.946;21.002;2024-01-15T11:55:33;21.00;19.00;13.00
50866;PMS7003;36839;51.946;21.002;2024-01-15T11:58:22;8.00;5.00;2.00
50866;PMS7003;36839;51.946;21.002;2024-01-15T12:01:05;18.50;16.50;10.50
50866;PMS7003;36839;51.946;21.002;2024-01-15T12:03:38;17.50;13.50;10.00
50866;PMS7003;36839;51.946;21.002;2024-01-15T12:06:43;18.00;16.00;11.00
50866;PMS7003;36839;51.946;21.002;2024-01-15T12:09:24;16.50;16.00;12.50
50866;PMS7003;36839;51.946;21.002;2024-01-15T12:12:07;23.50;16.50;12.00
50866;PMS7003;36839;51.946;21.002;2024-01-15T12:14:51;14.50;12.50;9.00
50866;PMS7003;36839;51.946;21.002;2024-01-15T12:18:18;23.00;21.00;15.00
50866;PMS7003;36839;51.946;21.002;2024-01-15T12:21:01;1.00;0.00;0.00
50866;PMS7003;36839;51.946;21.002;2024-01-15T12:23:45;17.00;16.00;11.00
50866;PMS7003;36839;51.946;21.002;2024-01-15T12:26:37;14.33;14.33;10.33
50866;PMS7003;36839;51.946;21.002;2024-01-15T12:29:19;9.00;9.00;5.50
50866;PMS7003;36839;51.946;21.002;2024-01-15T12:31:55;23.00;16.00;11.00
50866;PMS7003;36839;51.946;21.002;2024-01-15T12:34:35;21.50;18.00;12.00
50866;PMS7003;36839;51.946;21.002;2024-01-15T12:37:07;16.00;12.00;6.00
50866;PMS7003;36839;51.946;21.002;2024-01-15T12:42:28;21.50;19.00;15.00
50866;PMS7003;36839;51.946;21.002;2024-01-15T12:45:04;23.00;19.50;12.00
50866;PMS7003;36839;51.946;21.002;2024-01-15T12:47:47;17.00;17.00;12.00
50866;PMS7003;36839;51.946;21.002;2024-01-15T12:52:08;23.00;22.00;14.00
50866;PMS7003;36839;51.946;21.002;2024-01-15T12:54:49;18.00;10.00;8.00
50866;PMS7003;36839;51.946;21.002;2024-01-15T12:57:18;20.00;16.50;13.00
50866;PMS7003;36839;51.946;21.002;2024-01-15T12:59:56;18.33;17.00;11.00
50866;PMS7003;36839;51.946;21.002;2024-01-15T13:02:31;20.50;18.50;12.50
50866;PMS7003;36839;51.946;21.002;2024-01-15T13:05:20;14.00;14.00;10.00
50866;PMS7003;36839;51.946;21.002;2024-01-15T13:07:53;29.00;22.00;19.00
50866;PMS7003;36839;51.946;21.002;2024-01-15T13:10:32;46.00;35.00;21.00
50866;PMS7003;36839;51.946;21.002;2024-01-15T13:13:45;36.50;33.50;22.00
50866;PMS7003;36839;51.946;21.002;2024-01-15T13:16:16;22.00;18.50;14.50
50866;PMS7003;36839;51.946;21.002;2024-01-15T13:18:55;25.00;18.50;13.00
50866;PMS7003;36839;51.946;21.002;2024-01-15T13:21:42;19.00;19.00;13.00
50866;PMS7003;36839;51.946;21.002;2024-01-15T13:24:35;27.00;20.00;13.00
50866;PMS7003;36839;51.946;21.002;2024-01-15T13:30:02;24.00;22.00;14.00
50866;PMS7003;36839;51.946;21.002;2024-01-15T13:35:24;26.00;20.00;12.00
50866;PMS7003;36839;51.946;21.002;2024-01-15T13:38:34;22.00;19.00;12.00
50866;PMS7003;36839;51.946;21.002;2024-01-15T13:41:13;32.50;24.00;16.00
50866;PMS7003;36839;51.946;21.002;2024-01-15T13:43:53;21.00;20.00;11.50
50866;PMS7003;36839;51.946;21.002;2024-01-15T13:49:32;29.00;22.00;12.00
50866;PMS7003;36839;51.946;21.002;2024-01-15T13:52:12;25.00;21.00;13.00
50866;PMS7003;36839;51.946;21.002;2024-01-15T13:54:54;26.00;23.00;15.50
50866;PMS7003;36839;51.946;21.002;2024-01-15T14:00:38;20.00;20.00;13.00
50866;PMS7003;36839;51.946;21.002;2024-01-15T14:03:12;24.50;22.50;16.50
50866;PMS7003;36839;51.946;21.002;2024-01-15T14:05:51;28.00;21.00;15.00
50866;PMS7003;36839;51.946;21.002;2024-01-15T14:08:28;23.00;20.00;15.00
50866;PMS7003;36839;51.946;21.002;2024-01-15T14:10:59;17.50;17.00;11.50
50866;PMS7003;36839;51.946;21.002;2024-01-15T14:13:43;21.00;19.00;15.00
50866;PMS7003;36839;51.946;21.002;2024-01-15T14:16:09;27.00;24.00;15.00
50866;PMS7003;36839;51.946;21.002;2024-01-15T14:18:46;24.00;21.00;14.50
50866;PMS7003;36839;51.946;21.002;2024-01-15T14:21:35;32.00;24.00;16.00
50866;PMS7003;36839;51.946;21.002;2024-01-15T14:24:05;30.00;28.00;17.00
50866;PMS7003;36839;51.946;21.002;2024-01-15T14:26:44;33.00;24.00;16.00
50866;PMS7003;36839;51.946;21.002;2024-01-15T14:29:26;26.00;23.00;15.00
50866;PMS7003;36839;51.946;21.002;2024-01-15T14:31:59;32.50;25.00;17.50
50866;PMS7003;36839;51.946;21.002;2024-01-15T14:34:30;24.00;22.00;16.00
50866;PMS7003;36839;51.946;21.002;2024-01-15T14:37:06;29.50;26.00;16.00
50866;PMS7003;36839;51.946;21.002;2024-01-15T14:39:40;27.50;24.50;16.00
50866;PMS7003;36839;51.946;21.002;2024-01-15T14:42:14;30.00;25.00;16.00
50866;PMS7003;36839;51.946;21.002;2024-01-15T14:44:59;27.00;21.00;11.50
50866;PMS7003;36839;51.946;21.002;2024-01-15T14:47:42;34.00;26.00;17.50
50866;PMS7003;36839;51.946;21.002;2024-01-15T14:50:23;30.00;26.00;16.50
50866;PMS7003;36839;51.946;21.002;2024-01-15T14:52:55;26.00;25.00;16.50
50866;PMS7003;36839;51.946;21.002;2024-01-15T14:55:42;33.50;27.00;19.50
50866;PMS7003;36839;51.946;21.002;2024-01-15T14:58:25;25.00;21.00;15.00
50866;PMS7003;36839;51.946;21.002;2024-01-15T15:01:03;26.00;21.00;17.00
50866;PMS7003;36839;51.946;21.002;2024-01-15T15:03:49;27.00;24.50;19.00
50866;PMS7003;36839;51.946;21.002;2024-01-15T15:06:27;29.00;27.00;17.00
50866;PMS7003;36839;51.946;21.002;2024-01-15T15:08:57;34.67;24.33;17.33
50866;PMS7003;36839;51.946;21.002;2024-01-15T15:11:36;34.00;30.00;17.50
50866;PMS7003;36839;51.946;21.002;2024-01-15T15:14:15;31.00;24.00;16.00
50866;PMS7003;36839;51.946;21.002;2024-01-15T15:17:02;30.00;21.00;14.00
50866;PMS7003;36839;51.946;21.002;2024-01-15T15:19:48;30.00;25.00;17.00
50866;PMS7003;36839;51.946;21.002;2024-01-15T15:22:24;33.50;28.00;17.50
50866;PMS7003;36839;51.946;21.002;2024-01-15T15:25:01;33.00;28.00;16.00
50866;PMS7003;36839;51.946;21.002;2024-01-15T15:27:30;24.00;24.00;17.50
50866;PMS7003;36839;51.946;21.002;2024-01-15T15:30:00;20.50;15.50;8.00
50866;PMS7003;36839;51.946;21.002;2024-01-15T15:32:27;35.00;24.50;19.50
50866;PMS7003;36839;51.946;21.002;2024-01-15T15:34:57;29.00;27.00;16.00
50866;PMS7003;36839;51.946;21.002;2024-01-15T15:37:28;25.00;20.00;15.00
50866;PMS7003;36839;51.946;21.002;2024-01-15T15:39:56;26.67;19.00;14.00
50866;PMS7003;36839;51.946;21.002;2024-01-15T15:42:23;35.00;29.00;18.00
50866;PMS7003;36839;51.946;21.002;2024-01-15T15:44:50;22.67;20.67;14.67
50866;PMS7003;36839;51.946;21.002;2024-01-15T15:47:19;29.50;25.00;16.50
50866;PMS7003;36839;51.946;21.002;2024-01-15T15:49:48;28.00;19.00;14.00
50866;PMS7003;36839;51.946;21.002;2024-01-15T15:52:17;12.00;12.00;10.00
50866;PMS7003;36839;51.946;21.002;2024-01-15T15:54:44;25.50;22.50;15.50
50866;PMS7003;36839;51.946;21.002;2024-01-15T15:57:11;29.50;20.00;12.00
50866;PMS7003;36839;51.946;21.002;2024-01-15T15:59:41;26.00;19.00;12.00
50866;PMS7003;36839;51.946;21.002;2024-01-15T16:02:07;22.00;21.00;15.00
50866;PMS7003;36839;51.946;21.002;2024-01-15T16:04:40;22.67;20.33;15.00
50866;PMS7003;36839;51.946;21.002;2024-01-15T16:07:07;26.00;24.00;16.00
50866;PMS7003;36839;51.946;21.002;2024-01-15T16:09:37;28.00;21.50;15.50
50866;PMS7003;36839;51.946;21.002;2024-01-15T16:12:05;26.00;22.00;13.00
50866;PMS7003;36839;51.946;21.002;2024-01-15T16:14:39;27.00;19.00;13.50
50866;PMS7003;36839;51.946;21.002;2024-01-15T16:17:06;20.00;17.00;13.00